Dades meteomassalio
Diari Summary for Juliol 20, 2017 Units:  Metric    English   Both
« Previous Day
Next Day »
Diari Semanal Mensual Anual Personalitzat
  Maxima: Minima: Mijana:
Temperatura: 32.6 °C 20.1 °C 25.8 °C
Rosada: 19.1 °C 14.4 °C 17 °C
Humitat: 78 % 34 % 60 %
Velocitat del vent: 29.6 km/h 0.0 km/h 8.8 km/h
Racha vent: 29.6 km/h - -
Vent:- - SSW
Pressio: 1013.4 hPa 1008.4 hPa -
Pluja: 0.0 mm    
Historical Graphs
 
 
Tabular Data for Juliol 20, 2017
Time Temperature Dew Point Pressure Wind Wind Speed Wind Gust Humidity Rainfall Rate (Hourly) solar Conditions
00:01 24.7 °C 18.4 °C 1009.0 hPa Calm     68 % 0.0 mm 0.0 W/m2 CLR
00:06 24.4 °C 18.4 °C 1009.0 hPa Calm     69 % 0.0 mm 0.0 W/m2 CLR
00:11 24.3 °C 18.3 °C 1009.0 hPa Calm     69 % 0.0 mm 0.0 W/m2 CLR
00:16 24.3 °C 18.3 °C 1009.0 hPa Calm     69 % 0.0 mm 0.0 W/m2 CLR
00:21 24.4 °C 18.3 °C 1009.0 hPa Calm     69 % 0.0 mm 0.0 W/m2 CLR
00:26 24.3 °C 18.3 °C 1009.0 hPa Calm     69 % 0.0 mm 0.0 W/m2 CLR
00:31 24.3 °C 18.3 °C 1009.0 hPa Calm     69 % 0.0 mm 0.0 W/m2 CLR
00:36 24.3 °C 18.3 °C 1009.4 hPa Calm     69 % 0.0 mm 0.0 W/m2 CLR
00:41 24.3 °C 18.2 °C 1009.4 hPa Calm     69 % 0.0 mm 0.0 W/m2 CLR
00:46 24.2 °C 18.4 °C 1009.4 hPa Calm     70 % 0.0 mm 0.0 W/m2 CLR
00:51 24.1 °C 18.4 °C 1009.4 hPa Calm     71 % 0.0 mm 0.0 W/m2 CLR
00:56 23.9 °C 18.8 °C 1009.4 hPa Calm     73 % 0.0 mm 0.0 W/m2 CLR
01:01 23.7 °C 18.6 °C 1009.4 hPa Calm     73 % 0.0 mm 0.0 W/m2 CLR
01:06 23.6 °C 18.7 °C 1009.4 hPa Calm     74 % 0.0 mm 0.0 W/m2 CLR
01:11 23.5 °C 18.6 °C 1009.4 hPa Calm     74 % 0.0 mm 0.0 W/m2 CLR
01:16 23.3 °C 18.2 °C 1009.7 hPa Calm     73 % 0.0 mm 0.0 W/m2 CLR
01:21 23.2 °C 18.3 °C 1009.7 hPa Calm     74 % 0.0 mm 0.0 W/m2 CLR
01:26 23.2 °C 18.1 °C 1009.7 hPa Calm     73 % 0.0 mm 0.0 W/m2 CLR
01:31 23.1 °C 18.2 °C 1009.7 hPa Calm     74 % 0.0 mm 0.0 W/m2 CLR
01:36 22.9 °C 18.1 °C 1009.7 hPa Calm     74 % 0.0 mm 0.0 W/m2 CLR
01:37 22.9 °C 18.3 °C 1009.7 hPa Calm     75 % 0.0 mm 0.0 W/m2 CLR
01:42 22.9 °C 18.2 °C 1009.7 hPa Calm     75 % 0.0 mm 0.0 W/m2 CLR
01:47 22.9 °C 18.1 °C 1009.7 hPa Calm     74 % 0.0 mm 0.0 W/m2 CLR
01:52 23.4 °C 18.7 °C 1010.0 hPa WSW 14.8 km/h 14.8 km/h 75 % 0.0 mm 0.0 W/m2 CLR
01:57 23.6 °C 19.1 °C 1010.0 hPa WSW 11.1 km/h 11.1 km/h 76 % 0.0 mm 0.0 W/m2 CLR
02:02 23.6 °C 19.1 °C 1010.0 hPa WSW 11.3 km/h 11.3 km/h 76 % 0.0 mm 0.0 W/m2 CLR
02:07 23.5 °C 19.0 °C 1010.0 hPa WSW 9.3 km/h 9.3 km/h 76 % 0.0 mm 0.0 W/m2 CLR
02:12 23.4 °C 19.1 °C 1010.0 hPa West 14.8 km/h 14.8 km/h 77 % 0.0 mm 0.0 W/m2 CLR
02:18 23.3 °C 19.0 °C 1010.0 hPa West 20.4 km/h 20.4 km/h 77 % 0.0 mm 0.0 W/m2 CLR
02:23 23.2 °C 18.9 °C 1010.0 hPa West 16.1 km/h 16.1 km/h 77 % 0.0 mm 0.0 W/m2 CLR
02:28 23.1 °C 18.8 °C 1010.4 hPa WNW 14.8 km/h 14.8 km/h 77 % 0.0 mm 0.0 W/m2 CLR
02:33 23.1 °C 18.8 °C 1010.4 hPa WSW 7.4 km/h 7.4 km/h 77 % 0.0 mm 0.0 W/m2 CLR
02:38 23.1 °C 18.8 °C 1010.4 hPa SW 3.2 km/h 5.3 km/h 77 % 0.0 mm 0.0 W/m2 CLR
02:43 23.1 °C 18.8 °C 1010.4 hPa SW 5.6 km/h   77 % 0.0 mm 0.0 W/m2 CLR
02:48 23.0 °C 18.7 °C 1010.4 hPa SW 11.3 km/h 11.3 km/h 77 % 0.0 mm 0.0 W/m2 CLR
02:53 22.8 °C 18.6 °C 1010.4 hPa WSW 13.0 km/h 13.0 km/h 77 % 0.0 mm 0.0 W/m2 CLR
02:58 22.8 °C 18.7 °C 1010.4 hPa SW 11.1 km/h 11.1 km/h 78 % 0.0 mm 0.0 W/m2 CLR
03:03 22.7 °C 18.6 °C 1010.4 hPa West 16.7 km/h 16.7 km/h 78 % 0.0 mm 0.0 W/m2 CLR
03:08 22.6 °C 18.6 °C 1010.4 hPa WNW 20.4 km/h 20.4 km/h 78 % 0.0 mm 0.0 W/m2 CLR
03:13 22.5 °C 18.4 °C 1010.4 hPa WNW 22.5 km/h 22.5 km/h 78 % 0.0 mm 0.0 W/m2 CLR
03:18 22.4 °C 18.4 °C 1010.4 hPa West 18.5 km/h 18.5 km/h 78 % 0.0 mm 0.0 W/m2 CLR
03:23 22.3 °C 18.3 °C 1010.4 hPa West 22.2 km/h 22.2 km/h 78 % 0.0 mm 0.0 W/m2 CLR
03:28 22.3 °C 18.3 °C 1010.7 hPa West 25.9 km/h 25.9 km/h 78 % 0.0 mm 0.0 W/m2 CLR
03:33 22.1 °C 18.1 °C 1010.7 hPa West 14.8 km/h 14.8 km/h 78 % 0.0 mm 0.0 W/m2 CLR
03:38 22.1 °C 18.1 °C 1010.7 hPa West 5.6 km/h 5.6 km/h 78 % 0.0 mm 0.0 W/m2 CLR
03:43 21.9 °C 17.7 °C 1010.7 hPa West 9.3 km/h 9.3 km/h 77 % 0.0 mm 0.0 W/m2 CLR
03:48 21.8 °C 17.6 °C 1010.7 hPa Calm     77 % 0.0 mm 0.0 W/m2 CLR
03:53 21.8 °C 17.3 °C 1010.7 hPa NW 18.5 km/h 18.5 km/h 76 % 0.0 mm 0.0 W/m2 CLR
03:58 21.7 °C 17.3 °C 1010.7 hPa Calm     76 % 0.0 mm 0.0 W/m2 CLR
04:03 21.7 °C 17.1 °C 1011.1 hPa NW 16.7 km/h 16.7 km/h 75 % 0.0 mm 0.0 W/m2 CLR
04:08 21.7 °C 17.1 °C 1011.1 hPa Calm     75 % 0.0 mm 0.0 W/m2 CLR
04:13 21.7 °C 17.1 °C 1011.1 hPa Calm     75 % 0.0 mm 0.0 W/m2 CLR
04:18 21.7 °C 17.1 °C 1011.1 hPa Calm     75 % 0.0 mm 0.0 W/m2 CLR
04:23 21.7 °C 17.1 °C 1011.1 hPa Calm     75 % 0.0 mm 0.0 W/m2 CLR
04:28 21.7 °C 16.8 °C 1011.1 hPa West 11.1 km/h 11.1 km/h 74 % 0.0 mm 0.0 W/m2 CLR
04:33 21.6 °C 16.8 °C 1011.1 hPa NW 5.6 km/h 5.6 km/h 74 % 0.0 mm 0.0 W/m2 CLR
04:38 21.6 °C 16.7 °C 1011.1 hPa WSW 1.9 km/h 1.9 km/h 74 % 0.0 mm 0.0 W/m2 CLR
04:43 21.5 °C 16.7 °C 1011.1 hPa WSW 5.6 km/h 5.6 km/h 74 % 0.0 mm 0.0 W/m2 CLR
04:48 21.5 °C 16.7 °C 1011.1 hPa West 1.9 km/h   74 % 0.0 mm 0.0 W/m2 CLR
04:53 21.4 °C 16.8 °C 1011.1 hPa WNW 3.7 km/h 3.7 km/h 75 % 0.0 mm 0.0 W/m2 CLR
04:58 21.4 °C 16.8 °C 1011.4 hPa Calm     75 % 0.0 mm 0.0 W/m2 CLR
05:03 21.3 °C 16.7 °C 1011.1 hPa WSW 7.4 km/h 7.4 km/h 75 % 0.0 mm 0.0 W/m2 CLR
05:08 21.2 °C 16.6 °C 1011.4 hPa WSW 9.3 km/h 9.3 km/h 75 % 0.0 mm 0.0 W/m2 CLR
05:13 21.2 °C 16.6 °C 1011.4 hPa Calm     75 % 0.0 mm 0.0 W/m2 CLR
05:18 21.1 °C 16.4 °C 1011.1 hPa WSW 11.1 km/h 11.1 km/h 75 % 0.0 mm 0.0 W/m2 CLR
05:23 20.9 °C 16.3 °C 1011.4 hPa WNW 14.8 km/h 14.8 km/h 75 % 0.0 mm 0.0 W/m2 CLR
05:28 20.8 °C 16.0 °C 1011.4 hPa WNW 14.8 km/h 14.8 km/h 74 % 0.0 mm 0.0 W/m2 CLR
05:33 20.8 °C 16.0 °C 1011.4 hPa WNW 14.8 km/h 14.8 km/h 74 % 0.0 mm 0.0 W/m2 CLR
05:38 20.7 °C 15.9 °C 1011.4 hPa WNW 11.3 km/h 11.3 km/h 74 % 0.0 mm 0.0 W/m2 CLR
05:43 20.7 °C 15.7 °C 1011.4 hPa West 14.8 km/h 14.8 km/h 73 % 0.0 mm 0.0 W/m2 CLR
05:48 20.7 °C 15.9 °C 1011.4 hPa West 14.8 km/h 14.8 km/h 74 % 0.0 mm 0.0 W/m2 CLR
05:53 20.6 °C 15.6 °C 1011.4 hPa West 9.7 km/h 9.7 km/h 73 % 0.0 mm 0.0 W/m2 CLR
05:58 20.6 °C 15.6 °C 1011.7 hPa West 9.3 km/h 9.3 km/h 73 % 0.0 mm 0.0 W/m2 CLR
06:03 20.5 °C 15.5 °C 1011.4 hPa West 13.0 km/h 13.0 km/h 73 % 0.0 mm 0.0 W/m2 CLR
06:04 20.5 °C 15.5 °C 1011.4 hPa West 5.6 km/h 5.6 km/h 73 % 0.0 mm 0.0 W/m2 CLR
06:09 20.4 °C 15.2 °C 1011.7 hPa WNW 9.3 km/h 9.3 km/h 72 % 0.0 mm 0.0 W/m2 CLR
06:14 20.4 °C 15.2 °C 1011.7 hPa WNW 1.9 km/h   72 % 0.0 mm 0.0 W/m2 CLR
06:19 20.3 °C 15.1 °C 1011.7 hPa West 7.4 km/h 7.4 km/h 72 % 0.0 mm 0.0 W/m2 CLR
06:24 20.3 °C 15.1 °C 1011.7 hPa WNW 13.0 km/h 13.0 km/h 72 % 0.0 mm 0.0 W/m2 CLR
06:26 20.3 °C 15.1 °C 1011.7 hPa West 7.4 km/h 7.4 km/h 72 % 0.0 mm 0.0 W/m2 CLR
06:31 20.3 °C 15.1 °C 1012.1 hPa West 3.7 km/h   72 % 0.0 mm 0.0 W/m2 CLR
06:36 20.3 °C 15.1 °C 1012.1 hPa Calm     72 % 0.0 mm 0.0 W/m2 OVC
06:41 20.2 °C 15.0 °C 1012.1 hPa West 6.4 km/h 6.4 km/h 72 % 0.0 mm 0.0 W/m2 OVC
06:46 20.2 °C 14.9 °C 1012.4 hPa Calm     72 % 0.0 mm 0.0 W/m2 OVC
06:51 20.1 °C 14.9 °C 1012.4 hPa West 1.9 km/h 1.9 km/h 72 % 0.0 mm 5.0 W/m2 OVC
06:56 20.2 °C 14.9 °C 1012.4 hPa WSW 7.4 km/h   72 % 0.0 mm 9.0 W/m2 BKN
07:01 20.1 °C 14.9 °C 1012.4 hPa West 5.6 km/h 5.6 km/h 72 % 0.0 mm 12.0 W/m2 BKN
07:06 20.2 °C 14.9 °C 1012.4 hPa Calm     72 % 0.0 mm 14.0 W/m2 BKN
07:11 20.1 °C 14.9 °C 1012.4 hPa Calm     72 % 0.0 mm 19.0 W/m2 BKN
07:16 20.1 °C 14.9 °C 1012.4 hPa Calm     72 % 0.0 mm 21.0 W/m2 BKN
07:21 20.1 °C 14.9 °C 1012.4 hPa Calm     72 % 0.0 mm 25.0 W/m2 BKN
07:26 20.1 °C 14.9 °C 1012.8 hPa WNW 7.4 km/h 7.4 km/h 72 % 0.0 mm 25.0 W/m2 BKN
07:31 20.1 °C 14.7 °C 1012.8 hPa Calm     71 % 0.0 mm 28.0 W/m2 BKN
07:37 20.1 °C 14.7 °C 1012.8 hPa Calm     71 % 0.0 mm 30.0 W/m2 BKN
07:42 20.1 °C 14.6 °C 1012.8 hPa Calm     71 % 0.0 mm 32.0 W/m2 BKN
07:47 20.1 °C 14.6 °C 1012.8 hPa Calm     71 % 0.0 mm 69.0 W/m2 BKN
07:52 20.2 °C 14.7 °C 1012.8 hPa WSW 13.0 km/h 13.0 km/h 71 % 0.0 mm 58.0 W/m2 SCT
07:57 20.3 °C 14.9 °C 1012.8 hPa WSW 9.3 km/h 9.3 km/h 71 % 0.0 mm 113.0 W/m2 FEW
08:02 20.5 °C 14.8 °C 1012.8 hPa West 7.4 km/h 7.4 km/h 70 % 0.0 mm 125.0 W/m2 CLR
08:07 20.7 °C 15.0 °C 1013.1 hPa West 5.6 km/h 5.6 km/h 70 % 0.0 mm 144.0 W/m2 CLR
08:12 20.8 °C 14.9 °C 1013.1 hPa WNW 8.0 km/h 8.0 km/h 69 % 0.0 mm 162.0 W/m2 CLR
08:17 20.9 °C 14.8 °C 1013.1 hPa NW 9.7 km/h 9.7 km/h 68 % 0.0 mm 176.0 W/m2 CLR
08:22 21.0 °C 14.9 °C 1013.1 hPa WNW 19.3 km/h 19.3 km/h 68 % 0.0 mm 197.0 W/m2 CLR
08:27 21.1 °C 14.9 °C 1013.1 hPa West 16.1 km/h 16.1 km/h 68 % 0.0 mm 207.0 W/m2 CLR
08:32 21.1 °C 15.2 °C 1013.1 hPa NW 9.7 km/h 9.7 km/h 69 % 0.0 mm 241.0 W/m2 CLR
08:37 21.3 °C 15.1 °C 1013.1 hPa West 24.1 km/h 24.1 km/h 68 % 0.0 mm 274.0 W/m2 CLR
08:42 21.4 °C 15.2 °C 1013.1 hPa WNW 18.5 km/h 18.5 km/h 68 % 0.0 mm 283.0 W/m2 CLR
08:47 21.5 °C 15.3 °C 1013.1 hPa WNW 29.6 km/h 29.6 km/h 68 % 0.0 mm 308.0 W/m2 CLR
08:52 21.5 °C 15.1 °C 1013.1 hPa NW 22.2 km/h 22.2 km/h 67 % 0.0 mm 323.0 W/m2 CLR
08:57 21.4 °C 15.0 °C 1013.1 hPa NW 25.9 km/h 25.9 km/h 67 % 0.0 mm 330.0 W/m2 CLR
09:02 21.3 °C 15.2 °C 1013.1 hPa WNW 18.5 km/h 18.5 km/h 68 % 0.0 mm 174.0 W/m2 CLR
09:07 21.5 °C 15.3 °C 1013.1 hPa WNW 22.2 km/h 22.2 km/h 68 % 0.0 mm 327.0 W/m2 CLR
09:12 21.6 °C 15.2 °C 1013.1 hPa WNW 18.5 km/h 18.5 km/h 67 % 0.0 mm 269.0 W/m2 CLR
09:17 21.6 °C 15.2 °C 1013.4 hPa NW 9.3 km/h 9.3 km/h 67 % 0.0 mm 367.0 W/m2 CLR
09:22 21.8 °C 15.2 °C 1013.4 hPa West 16.1 km/h 16.1 km/h 66 % 0.0 mm 385.0 W/m2 CLR
09:27 21.8 °C 15.2 °C 1013.4 hPa West 18.5 km/h 18.5 km/h 66 % 0.0 mm 367.0 W/m2 CLR
09:32 21.9 °C 15.3 °C 1013.4 hPa WNW 11.1 km/h 11.1 km/h 66 % 0.0 mm 415.0 W/m2 CLR
09:37 22.1 °C 15.2 °C 1013.4 hPa WSW 14.8 km/h 14.8 km/h 65 % 0.0 mm 427.0 W/m2 CLR
09:42 22.3 °C 15.7 °C 1013.4 hPa NW 14.8 km/h 14.8 km/h 66 % 0.0 mm 439.0 W/m2 CLR
09:47 22.6 °C 15.7 °C 1013.4 hPa NW 11.1 km/h 11.1 km/h 65 % 0.0 mm 452.0 W/m2 CLR
09:52 22.7 °C 15.6 °C 1013.4 hPa WSW 13.0 km/h 13.0 km/h 64 % 0.0 mm 469.0 W/m2 CLR
09:57 22.8 °C 15.4 °C 1013.1 hPa WNW 14.8 km/h 14.8 km/h 63 % 0.0 mm 483.0 W/m2 CLR
10:02 22.8 °C 15.4 °C 1013.1 hPa WNW 16.7 km/h 16.7 km/h 63 % 0.0 mm 497.0 W/m2 CLR
10:07 23.1 °C 15.7 °C 1013.1 hPa WNW 14.8 km/h 14.8 km/h 63 % 0.0 mm 515.0 W/m2 CLR
10:12 23.2 °C 15.7 °C 1013.1 hPa West 11.1 km/h 11.1 km/h 63 % 0.0 mm 526.0 W/m2 CLR
10:17 23.0 °C 15.6 °C 1013.1 hPa NW 18.5 km/h 18.5 km/h 63 % 0.0 mm 545.0 W/m2 CLR
10:23 23.1 °C 15.6 °C 1013.1 hPa NW 8.0 km/h 8.0 km/h 63 % 0.0 mm 557.0 W/m2 CLR
10:28 23.2 °C 15.8 °C 1013.1 hPa NW 6.4 km/h 6.4 km/h 63 % 0.0 mm 566.0 W/m2 CLR
10:33 23.7 °C 16.0 °C 1013.1 hPa WSW 7.4 km/h 7.4 km/h 62 % 0.0 mm 587.0 W/m2 CLR
10:38 23.8 °C 15.8 °C 1013.1 hPa WNW 16.7 km/h 16.7 km/h 61 % 0.0 mm 598.0 W/m2 CLR
10:43 23.9 °C 15.9 °C 1013.1 hPa WNW 13.0 km/h   61 % 0.0 mm 613.0 W/m2 CLR
10:48 24.1 °C 16.1 °C 1013.1 hPa West 14.8 km/h 14.8 km/h 61 % 0.0 mm 626.0 W/m2 CLR
10:53 24.2 °C 15.9 °C 1013.1 hPa NW 14.8 km/h 14.8 km/h 60 % 0.0 mm 638.0 W/m2 CLR
10:58 24.4 °C 16.2 °C 1013.1 hPa NW 16.7 km/h 16.7 km/h 60 % 0.0 mm 700.0 W/m2 CLR
11:03 24.7 °C 16.1 °C 1012.8 hPa NW 14.8 km/h 14.8 km/h 59 % 0.0 mm 202.0 W/m2 CLR
11:08 24.7 °C 16.1 °C 1012.8 hPa West 9.7 km/h 9.7 km/h 59 % 0.0 mm 802.0 W/m2 CLR
11:13 24.6 °C 16.3 °C 1012.8 hPa NW 14.8 km/h 14.8 km/h 60 % 0.0 mm 225.0 W/m2 CLR
11:18 24.4 °C 16.1 °C 1012.8 hPa West 14.8 km/h 14.8 km/h 60 % 0.0 mm 186.0 W/m2 CLR
11:23 24.4 °C 16.4 °C 1012.8 hPa West 13.0 km/h 13.0 km/h 61 % 0.0 mm 777.0 W/m2 CLR
11:28 24.7 °C 16.7 °C 1012.8 hPa West 13.0 km/h 13.0 km/h 61 % 0.0 mm 773.0 W/m2 CLR
11:33 25.1 °C 16.6 °C 1012.8 hPa Calm     59 % 0.0 mm 759.0 W/m2 CLR
11:38 25.6 °C 16.9 °C 1012.8 hPa WSW 8.0 km/h 8.0 km/h 59 % 0.0 mm 642.0 W/m2 CLR
11:43 25.6 °C 16.7 °C 1012.4 hPa West 13.0 km/h 13.0 km/h 58 % 0.0 mm 842.0 W/m2 CLR
11:48 25.8 °C 16.9 °C 1012.4 hPa NNW 11.1 km/h 11.1 km/h 58 % 0.0 mm 817.0 W/m2 CLR
11:53 26.1 °C 16.9 °C 1012.8 hPa SSW 14.8 km/h 14.8 km/h 57 % 0.0 mm 805.0 W/m2 CLR
11:58 26.5 °C 17.0 °C 1012.4 hPa West 18.5 km/h 18.5 km/h 56 % 0.0 mm 763.0 W/m2 CLR
12:03 26.6 °C 16.8 °C 1012.4 hPa West 3.7 km/h   55 % 0.0 mm 800.0 W/m2 CLR
12:08 26.6 °C 16.8 °C 1012.4 hPa SW 11.1 km/h 11.1 km/h 55 % 0.0 mm 807.0 W/m2 CLR
12:13 26.8 °C 16.7 °C 1012.4 hPa Calm     54 % 0.0 mm 816.0 W/m2 CLR
12:18 26.9 °C 16.5 °C 1012.4 hPa West 9.3 km/h 9.3 km/h 53 % 0.0 mm 816.0 W/m2 CLR
12:23 27.0 °C 16.9 °C 1012.4 hPa Calm     54 % 0.0 mm 828.0 W/m2 CLR
12:28 27.4 °C 16.9 °C 1012.4 hPa Calm     53 % 0.0 mm 837.0 W/m2 CLR
12:33 27.8 °C 17.1 °C 1012.4 hPa North 14.8 km/h 14.8 km/h 52 % 0.0 mm 844.0 W/m2 CLR
12:38 27.8 °C 17.1 °C 1012.4 hPa NW 7.4 km/h 7.4 km/h 52 % 0.0 mm 867.0 W/m2 CLR
12:43 27.9 °C 17.2 °C 1012.4 hPa West 7.4 km/h 7.4 km/h 52 % 0.0 mm 900.0 W/m2 CLR
12:48 28.0 °C 16.9 °C 1012.4 hPa NW 11.1 km/h 11.1 km/h 51 % 0.0 mm 898.0 W/m2 CLR
12:53 27.9 °C 16.8 °C 1012.4 hPa Calm     51 % 0.0 mm 821.0 W/m2 CLR
12:58 27.9 °C 16.8 °C 1012.4 hPa Calm     51 % 0.0 mm 388.0 W/m2 CLR
13:03 27.9 °C 16.9 °C 1012.1 hPa Calm     51 % 0.0 mm 977.0 W/m2 CLR
13:08 28.1 °C 17.3 °C 1012.1 hPa Calm     52 % 0.0 mm 988.0 W/m2 CLR
13:13 28.7 °C 17.6 °C 1012.1 hPa Calm     51 % 0.0 mm 1030.0 W/m2 CLR
13:18 28.9 °C 17.1 °C 1012.1 hPa NNW 11.1 km/h 11.1 km/h 49 % 0.0 mm 573.0 W/m2 CLR
13:23 28.5 °C 17.1 °C 1012.1 hPa Calm     50 % 0.0 mm 956.0 W/m2 CLR
13:28 28.4 °C 16.9 °C 1012.1 hPa SSE 1.9 km/h 1.9 km/h 50 % 0.0 mm 935.0 W/m2 CLR
13:33 28.5 °C 17.4 °C 1011.7 hPa North 4.8 km/h 4.8 km/h 51 % 0.0 mm 937.0 W/m2 CLR
13:38 28.8 °C 17.1 °C 1011.7 hPa Calm     49 % 0.0 mm 979.0 W/m2 CLR
13:43 28.7 °C 17.3 °C 1011.7 hPa ENE 11.1 km/h 11.1 km/h 50 % 0.0 mm 209.0 W/m2 CLR
13:48 28.6 °C 17.1 °C 1011.7 hPa ENE 3.7 km/h   50 % 0.0 mm 937.0 W/m2 CLR
13:53 28.7 °C 17.3 °C 1011.7 hPa Calm   0.3 km/h 50 % 0.0 mm 953.0 W/m2 CLR
13:58 29.0 °C 17.2 °C 1011.7 hPa ENE 7.4 km/h 7.4 km/h 49 % 0.0 mm 974.0 W/m2 CLR
14:03 29.3 °C 17.2 °C 1011.4 hPa NNE 9.3 km/h   48 % 0.0 mm 276.0 W/m2 CLR
14:08 29.3 °C 17.1 °C 1011.4 hPa East 11.1 km/h 11.1 km/h 48 % 0.0 mm 960.0 W/m2 CLR
14:09 29.3 °C 17.1 °C 1011.4 hPa ESE 7.4 km/h   48 % 0.0 mm 960.0 W/m2 CLR
14:14 29.3 °C 17.2 °C 1011.4 hPa East 1.9 km/h 1.9 km/h 48 % 0.0 mm 921.0 W/m2 CLR
14:19 29.4 °C 17.2 °C 1011.4 hPa Calm     48 % 0.0 mm 926.0 W/m2 CLR
14:24 29.8 °C 17.3 °C 1011.4 hPa NE 5.6 km/h 5.6 km/h 47 % 0.0 mm 976.0 W/m2 CLR
14:29 30.1 °C 17.2 °C 1011.1 hPa Calm     46 % 0.0 mm 976.0 W/m2 CLR
14:34 30.3 °C 17.4 °C 1011.1 hPa Calm     46 % 0.0 mm 916.0 W/m2 CLR
14:35 30.4 °C 17.1 °C 1011.1 hPa Calm     45 % 0.0 mm 921.0 W/m2 CLR
14:40 30.4 °C 17.2 °C 1011.1 hPa Calm   1.9 km/h 45 % 0.0 mm 972.0 W/m2 CLR
14:45 30.4 °C 17.2 °C 1011.1 hPa NE 14.8 km/h 14.8 km/h 45 % 0.0 mm 993.0 W/m2 CLR
14:50 30.4 °C 17.2 °C 1010.7 hPa Calm     45 % 0.0 mm 1042.0 W/m2 CLR
14:56 30.4 °C 17.2 °C 1010.7 hPa ENE 1.9 km/h   45 % 0.0 mm 1039.0 W/m2 CLR
15:01 30.4 °C 16.8 °C 1010.7 hPa Calm     44 % 0.0 mm 972.0 W/m2 CLR
15:06 30.5 °C 17.2 °C 1010.7 hPa Calm     45 % 0.0 mm 928.0 W/m2 CLR
15:11 30.6 °C 17.3 °C 1010.4 hPa NNE 1.9 km/h 3.9 km/h 45 % 0.0 mm 912.0 W/m2 CLR
15:16 30.9 °C 17.9 °C 1010.4 hPa ENE 13.0 km/h 13.0 km/h 46 % 0.0 mm 889.0 W/m2 CLR
15:21 30.8 °C 17.5 °C 1010.4 hPa NNE 20.9 km/h 20.9 km/h 45 % 0.0 mm 870.0 W/m2 CLR
15:26 30.7 °C 17.4 °C 1010.4 hPa NE 14.8 km/h 14.8 km/h 45 % 0.0 mm 921.0 W/m2 CLR
15:31 30.8 °C 17.5 °C 1010.4 hPa ENE 8.0 km/h 8.0 km/h 45 % 0.0 mm 879.0 W/m2 CLR
15:36 30.8 °C 17.5 °C 1010.4 hPa ENE 18.5 km/h 18.5 km/h 45 % 0.0 mm 174.0 W/m2 CLR
15:41 30.6 °C 17.3 °C 1010.4 hPa North 20.4 km/h 20.4 km/h 45 % 0.0 mm 837.0 W/m2 CLR
15:46 30.3 °C 17.4 °C 1010.4 hPa Calm     46 % 0.0 mm 888.0 W/m2 CLR
15:51 30.3 °C 17.4 °C 1010.0 hPa ENE 11.3 km/h 11.3 km/h 46 % 0.0 mm 854.0 W/m2 CLR
15:56 30.8 °C 17.5 °C 1010.0 hPa NNE 13.0 km/h 13.0 km/h 45 % 0.0 mm 842.0 W/m2 CLR
16:01 31.2 °C 17.5 °C 1010.0 hPa NE 19.3 km/h 19.3 km/h 44 % 0.0 mm 817.0 W/m2 CLR
16:06 31.2 °C 17.4 °C 1010.0 hPa ENE 7.4 km/h 7.4 km/h 44 % 0.0 mm 819.0 W/m2 CLR
16:11 30.7 °C 17.0 °C 1010.0 hPa NNE 11.1 km/h 11.1 km/h 44 % 0.0 mm 153.0 W/m2 CLR
16:16 30.8 °C 17.5 °C 1010.0 hPa East 11.1 km/h 11.1 km/h 45 % 0.0 mm 793.0 W/m2 CLR
16:21 30.8 °C 17.5 °C 1009.7 hPa NNE 9.3 km/h 9.3 km/h 45 % 0.0 mm 784.0 W/m2 CLR
16:26 30.9 °C 16.8 °C 1009.7 hPa ENE 7.4 km/h 7.4 km/h 43 % 0.0 mm 775.0 W/m2 CLR
16:31 30.9 °C 16.9 °C 1010.0 hPa North 5.6 km/h 5.6 km/h 43 % 0.0 mm 759.0 W/m2 CLR
16:36 31.3 °C 17.2 °C 1009.7 hPa North 11.1 km/h 11.1 km/h 43 % 0.0 mm 763.0 W/m2 CLR
16:41 31.3 °C 16.9 °C 1009.7 hPa NNW 14.8 km/h 14.8 km/h 42 % 0.0 mm 754.0 W/m2 CLR
16:46 31.5 °C 16.7 °C 1009.7 hPa North 11.1 km/h 11.1 km/h 41 % 0.0 mm 749.0 W/m2 CLR
16:51 32.1 °C 17.2 °C 1009.7 hPa ENE 5.6 km/h 5.6 km/h 41 % 0.0 mm 733.0 W/m2 CLR
16:56 32.1 °C 16.4 °C 1009.4 hPa Calm     39 % 0.0 mm 717.0 W/m2 CLR
17:01 32.0 °C 16.3 °C 1009.4 hPa SW 3.7 km/h 3.7 km/h 39 % 0.0 mm 712.0 W/m2 CLR
17:06 32.0 °C 15.9 °C 1009.4 hPa WSW 1.9 km/h 1.9 km/h 38 % 0.0 mm 694.0 W/m2 CLR
17:11 32.3 °C 15.7 °C 1009.0 hPa West 1.9 km/h   37 % 0.0 mm 671.0 W/m2 CLR
17:16 32.3 °C 15.8 °C 1009.0 hPa SW 7.4 km/h 7.4 km/h 37 % 0.0 mm 666.0 W/m2 CLR
17:21 32.5 °C 15.5 °C 1009.0 hPa WNW 3.7 km/h 3.7 km/h 36 % 0.0 mm 656.0 W/m2 CLR
17:26 32.6 °C 15.6 °C 1009.0 hPa North 5.6 km/h 5.6 km/h 36 % 0.0 mm 645.0 W/m2 CLR
17:31 32.5 °C 15.5 °C 1009.0 hPa NNE 5.6 km/h 5.6 km/h 36 % 0.0 mm 633.0 W/m2 CLR
17:36 32.4 °C 15.8 °C 1009.0 hPa NE 8.0 km/h 8.0 km/h 37 % 0.0 mm 621.0 W/m2 CLR
17:41 32.3 °C 15.8 °C 1008.7 hPa Calm     37 % 0.0 mm 610.0 W/m2 CLR
17:46 32.4 °C 16.2 °C 1008.7 hPa East 16.7 km/h 16.7 km/h 38 % 0.0 mm 598.0 W/m2 CLR
17:51 32.2 °C 16.1 °C 1008.7 hPa ENE 20.4 km/h 20.4 km/h 38 % 0.0 mm 580.0 W/m2 CLR
17:56 32.2 °C 15.6 °C 1008.7 hPa NE 9.3 km/h 9.3 km/h 37 % 0.0 mm 564.0 W/m2 CLR
18:01 32.3 °C 15.3 °C 1008.7 hPa NE 18.5 km/h 18.5 km/h 36 % 0.0 mm 534.0 W/m2 CLR
18:06 32.3 °C 14.9 °C 1008.7 hPa ENE 14.8 km/h 14.8 km/h 35 % 0.0 mm 545.0 W/m2 CLR
18:11 32.3 °C 14.4 °C 1008.7 hPa NNE 11.1 km/h 11.1 km/h 34 % 0.0 mm 520.0 W/m2 CLR
18:16 32.4 °C 14.5 °C 1008.7 hPa North 5.6 km/h 5.6 km/h 34 % 0.0 mm 519.0 W/m2 CLR
18:21 32.1 °C 17.2 °C 1008.7 hPa ESE 16.7 km/h 16.7 km/h 41 % 0.0 mm 494.0 W/m2 CLR
18:26 31.4 °C 17.3 °C 1008.7 hPa East 8.0 km/h 8.0 km/h 43 % 0.0 mm 496.0 W/m2 CLR
18:31 31.3 °C 17.6 °C 1008.7 hPa SE 18.5 km/h 18.5 km/h 44 % 0.0 mm 457.0 W/m2 CLR
18:36 31.1 °C 17.4 °C 1008.7 hPa East 18.5 km/h 18.5 km/h 44 % 0.0 mm 434.0 W/m2 CLR
18:41 30.9 °C 16.8 °C 1008.7 hPa ESE 13.0 km/h 13.0 km/h 43 % 0.0 mm 415.0 W/m2 CLR
18:42 30.9 °C 16.8 °C 1008.7 hPa SE 13.0 km/h 13.2 km/h 43 % 0.0 mm 415.0 W/m2 CLR
18:47 30.8 °C 16.8 °C 1008.4 hPa ESE 11.1 km/h 11.1 km/h 43 % 0.0 mm 258.0 W/m2 CLR
18:52 30.8 °C 16.8 °C 1008.7 hPa ENE 5.6 km/h   43 % 0.0 mm 172.0 W/m2 CLR
18:57 30.9 °C 16.6 °C 1008.4 hPa ESE 1.9 km/h   42 % 0.0 mm 369.0 W/m2 CLR
19:02 31.1 °C 17.1 °C 1008.4 hPa Calm     43 % 0.0 mm 373.0 W/m2 CLR
19:07 31.1 °C 17.1 °C 1008.4 hPa ESE 3.7 km/h 5.0 km/h 43 % 0.0 mm 148.0 W/m2 CLR
19:12 30.9 °C 17.2 °C 1008.4 hPa SE 9.3 km/h 9.3 km/h 44 % 0.0 mm 135.0 W/m2 CLR
19:17 30.6 °C 17.3 °C 1008.4 hPa SE 8.0 km/h 8.0 km/h 45 % 0.0 mm 132.0 W/m2 CLR
19:22 30.4 °C 17.2 °C 1008.4 hPa SE 14.8 km/h 14.8 km/h 45 % 0.0 mm 214.0 W/m2 CLR
19:27 30.3 °C 17.4 °C 1008.4 hPa SE 22.2 km/h 22.2 km/h 46 % 0.0 mm 105.0 W/m2 CLR
19:32 30.2 °C 17.6 °C 1008.4 hPa SE 14.5 km/h 14.5 km/h 47 % 0.0 mm 93.0 W/m2 CLR
19:37 29.9 °C 17.4 °C 1008.4 hPa SE 18.5 km/h 18.5 km/h 47 % 0.0 mm 84.0 W/m2 CLR
19:42 29.8 °C 17.7 °C 1008.7 hPa ESE 18.5 km/h 18.5 km/h 48 % 0.0 mm 88.0 W/m2 CLR
19:47 29.8 °C 17.9 °C 1008.4 hPa ESE 20.4 km/h 20.4 km/h 49 % 0.0 mm 102.0 W/m2 CLR
19:52 29.6 °C 18.1 °C 1008.7 hPa ESE 14.8 km/h 14.8 km/h 50 % 0.0 mm 104.0 W/m2 CLR
19:57 29.5 °C 18.0 °C 1008.7 hPa East 16.7 km/h 16.7 km/h 50 % 0.0 mm 95.0 W/m2 CLR
20:02 29.3 °C 17.8 °C 1008.7 hPa East 18.5 km/h 18.5 km/h 50 % 0.0 mm 90.0 W/m2 CLR
20:07 29.3 °C 17.8 °C 1008.7 hPa ESE 13.0 km/h 13.0 km/h 50 % 0.0 mm 91.0 W/m2 CLR
20:12 29.3 °C 17.8 °C 1008.7 hPa ESE 11.1 km/h 11.1 km/h 50 % 0.0 mm 84.0 W/m2 CLR
20:17 29.2 °C 18.1 °C 1008.7 hPa SE 7.4 km/h 7.4 km/h 51 % 0.0 mm 83.0 W/m2 CLR
20:22 29.2 °C 18.1 °C 1008.7 hPa SE 14.8 km/h 14.8 km/h 51 % 0.0 mm 88.0 W/m2 FEW
20:27 29.1 °C 18.3 °C 1008.7 hPa ESE 14.8 km/h 14.8 km/h 52 % 0.0 mm 100.0 W/m2 CLR
20:32 29.1 °C 18.2 °C 1008.7 hPa SE 11.1 km/h 11.1 km/h 52 % 0.0 mm 95.0 W/m2 CLR
20:37 29.0 °C 18.2 °C 1008.7 hPa ESE 18.5 km/h 18.5 km/h 52 % 0.0 mm 86.0 W/m2 CLR
20:42 28.9 °C 18.1 °C 1008.7 hPa ESE 12.9 km/h 12.9 km/h 52 % 0.0 mm 74.0 W/m2 FEW
20:47 28.8 °C 18.0 °C 1008.7 hPa ESE 14.8 km/h 14.8 km/h 52 % 0.0 mm 69.0 W/m2 FEW
20:52 28.8 °C 17.9 °C 1008.7 hPa ESE 16.7 km/h 16.7 km/h 52 % 0.0 mm 65.0 W/m2 FEW
20:57 28.7 °C 17.9 °C 1008.7 hPa SE 13.0 km/h 13.0 km/h 52 % 0.0 mm 53.0 W/m2 SCT
21:02 28.7 °C 18.2 °C 1009.0 hPa ESE 9.3 km/h 9.3 km/h 53 % 0.0 mm 40.0 W/m2 BKN
21:07 28.6 °C 17.8 °C 1009.0 hPa SE 13.0 km/h 13.0 km/h 52 % 0.0 mm 32.0 W/m2 BKN
21:12 28.6 °C 17.8 °C 1009.0 hPa ESE 9.7 km/h 9.7 km/h 52 % 0.0 mm 25.0 W/m2 BKN
21:17 28.6 °C 17.8 °C 1009.0 hPa SE 7.4 km/h 7.4 km/h 52 % 0.0 mm 18.0 W/m2 BKN
21:22 28.6 °C 17.8 °C 1009.0 hPa SSE 7.4 km/h 7.4 km/h 52 % 0.0 mm 9.0 W/m2 BKN
21:27 28.6 °C 18.1 °C 1009.4 hPa SSE 3.7 km/h 3.7 km/h 53 % 0.0 mm 0.0 W/m2 OVC
21:32 28.5 °C 18.0 °C 1009.0 hPa SSE 13.0 km/h 13.0 km/h 53 % 0.0 mm 7.0 W/m2 OVC
21:37 28.4 °C 17.9 °C 1009.0 hPa SSE 9.3 km/h 9.3 km/h 53 % 0.0 mm 0.0 W/m2 OVC
21:42 28.3 °C 17.8 °C 1009.0 hPa Calm     53 % 0.0 mm 0.0 W/m2 CLR
21:47 28.2 °C 18.0 °C 1009.4 hPa SSE 7.4 km/h 7.4 km/h 54 % 0.0 mm 0.0 W/m2 CLR
21:52 28.1 °C 17.9 °C 1009.4 hPa SE 9.7 km/h 9.7 km/h 54 % 0.0 mm 0.0 W/m2 CLR
21:57 27.9 °C 18.3 °C 1009.4 hPa Calm     56 % 0.0 mm 0.0 W/m2 CLR
22:02 27.6 °C 18.3 °C 1009.4 hPa Calm     57 % 0.0 mm 0.0 W/m2 CLR
22:07 27.4 °C 18.7 °C 1009.4 hPa Calm     59 % 0.0 mm 0.0 W/m2 CLR
22:12 27.2 °C 18.7 °C 1009.7 hPa ESE 9.3 km/h 9.3 km/h 60 % 0.0 mm 0.0 W/m2 CLR
22:17 26.8 °C 18.9 °C 1009.7 hPa SE 5.6 km/h 5.6 km/h 62 % 0.0 mm 0.0 W/m2 CLR
22:22 26.6 °C 19.0 °C 1009.7 hPa ESE 11.1 km/h 11.1 km/h 63 % 0.0 mm 0.0 W/m2 CLR
22:27 26.4 °C 18.8 °C 1009.7 hPa ESE 5.6 km/h 5.6 km/h 63 % 0.0 mm 0.0 W/m2 CLR
22:32 26.3 °C 18.9 °C 1010.0 hPa ESE 3.7 km/h 3.7 km/h 64 % 0.0 mm 0.0 W/m2 CLR
22:37 26.1 °C 19.0 °C 1010.0 hPa East 3.7 km/h 3.7 km/h 65 % 0.0 mm 0.0 W/m2 CLR
22:42 25.9 °C 19.1 °C 1010.0 hPa SE 5.6 km/h 5.6 km/h 66 % 0.0 mm 0.0 W/m2 CLR
22:47 25.8 °C 19.0 °C 1010.0 hPa SE 5.6 km/h 5.6 km/h 66 % 0.0 mm 0.0 W/m2 CLR
22:52 25.7 °C 18.9 °C 1010.4 hPa ESE 9.3 km/h 9.3 km/h 66 % 0.0 mm 0.0 W/m2 CLR
22:57 25.8 °C 18.4 °C 1010.4 hPa SE 9.3 km/h 9.3 km/h 64 % 0.0 mm 0.0 W/m2 CLR
23:02 25.8 °C 18.5 °C 1010.0 hPa SE 7.4 km/h 7.4 km/h 64 % 0.0 mm 0.0 W/m2 CLR
23:07 25.8 °C 18.5 °C 1010.4 hPa SSE 7.4 km/h 7.4 km/h 64 % 0.0 mm 0.0 W/m2 CLR
23:12 25.8 °C 18.5 °C 1010.4 hPa South 8.0 km/h 8.0 km/h 64 % 0.0 mm 0.0 W/m2 CLR
23:17 25.8 °C 18.8 °C 1010.4 hPa South 14.8 km/h 14.8 km/h 65 % 0.0 mm 0.0 W/m2 CLR
23:22 25.7 °C 18.7 °C 1010.4 hPa South 9.3 km/h 9.3 km/h 65 % 0.0 mm 0.0 W/m2 CLR
23:27 25.7 °C 18.6 °C 1010.4 hPa SSE 16.7 km/h 16.7 km/h 65 % 0.0 mm 0.0 W/m2 CLR
23:32 25.6 °C 18.5 °C 1010.7 hPa SSE 18.5 km/h 18.5 km/h 65 % 0.0 mm 0.0 W/m2 CLR
23:37 25.6 °C 18.7 °C 1010.7 hPa SSE 9.3 km/h 9.3 km/h 66 % 0.0 mm 0.0 W/m2 CLR
23:42 25.5 °C 18.7 °C 1010.7 hPa SW 5.6 km/h   66 % 0.0 mm 0.0 W/m2 CLR
23:47 25.4 °C 17.9 °C 1010.7 hPa SW 11.1 km/h 11.1 km/h 63 % 0.0 mm 0.0 W/m2 CLR
23:52 25.4 °C 16.5 °C 1010.7 hPa NW 14.8 km/h 14.8 km/h 58 % 0.0 mm 0.0 W/m2 CLR
23:57 25.2 °C 15.6 °C 1010.7 hPa North 13.0 km/h 13.0 km/h 55 % 0.0 mm 0.0 W/m2 CLR
Lo Temps de Massalio
Compliments of Weather Underground - 1.25 mb